Captain Christian’s ATC Tracking Thread- [CLOSED] @KATL

Hello, welcome to my ATC Tracking Thread. I have opened this thread to help gain operations for my goal to get into IFATC. I would appreciate a review of things I need to improve on. Thanks
Stay Safe,
Christian

Airport
KATL

Time
23:30-24:30Z

METAR
KATL 162252Z 12007KT 10SM SCT060 BKN300 28/13 A2999 RMK AO2 SLP147 T02780133 $

Departing Runway
9L,8R

Arriving Runway
10, 9R, 8L

Notams
Pattern Work Allowed

Server
Training Server

How long do you plan on staying open for?

30 min-an hour

Now Open

With @InfiniteFlightAvgeek

OPEN KATL Training Server
Come fly
Session Info above

Connection Issues I’m working on getting back in

Back In to the session

Closed, Thanks if you stopped by

OPEN KATL Session Info above

This topic was automatically closed 90 days after the last reply. New replies are no longer allowed.